This is the latest recevied weather packets stored in our database for station/object VK5TRM-13. If no packets are shown the sender has not sent any weather packets the latest 10 day(s).
| Time | Temp. | Humidity | Pressure | Rain* | Wind** | Luminosity | Snow |
|---|---|---|---|---|---|---|---|
| 1778104805 | 7.78° C | 82% | 1028.5 hPa | 0.51 mm | - | - | - |
| 1778103904 | 7.78° C | 82% | 1028.5 hPa | 0.51 mm | - | - | - |
| 1778103004 | 8.33° C | 83% | 1027.9 hPa | 0.51 mm | - | - | - |
| 1778102105 | 8.33° C | 83% | 1027.9 hPa | 0.51 mm | - | - | - |
| 1778101205 | 7.78° C | 84% | 1027.7 hPa | 0.51 mm | - | - | - |
| 1778100305 | 7.78° C | 84% | 1027.7 hPa | 0.51 mm | - | - | - |
| 1778099405 | 7.78° C | 86% | 1027.6 hPa | 0.51 mm | - | - | - |
| 1778098505 | 7.78° C | 86% | 1027.6 hPa | 0.51 mm | - | - | - |
| 1778097605 | 7.22° C | 85% | 1027.3 hPa | 0.51 mm | - | - | - |
| 1778096704 | 7.22° C | 85% | 1027.3 hPa | 0.51 mm | - | - | - |
| 1778095805 | 7.78° C | 81% | 1027 hPa | 0.51 mm | - | - | - |
| 1778094904 | 7.78° C | 81% | 1027 hPa | 0.51 mm | - | - | - |
| 1778094004 | 7.78° C | 80% | 1026.6 hPa | 0.51 mm | - | - | - |
| 1778093105 | 7.78° C | 80% | 1026.6 hPa | 0.51 mm | - | - | - |
| 1778092205 | 8.89° C | 80% | 1026.6 hPa | 0.51 mm | - | - | - |
| 1778091305 | 8.89° C | 80% | 1026.6 hPa | 0.51 mm | - | - | - |
| 1778090405 | 8.33° C | 81% | 1026.5 hPa | 0.51 mm | - | - | - |
| 1778089504 | 8.33° C | 81% | 1026.5 hPa | 0.51 mm | - | - | - |
| 1778088604 | 7.78° C | 82% | 1026.3 hPa | 0.51 mm | - | - | - |
| 1778087704 | 7.78° C | 82% | 1026.3 hPa | 0.51 mm | - | - | - |
| 1778086805 | 8.33° C | 77% | 1026.2 hPa | 0.51 mm | - | - | - |
| 1778085905 | 8.33° C | 77% | 1026.2 hPa | 0.51 mm | - | - | - |
| 1778085004 | 10° C | 73% | 1026.1 hPa | 0.51 mm | - | - | - |
| 1778084104 | 10° C | 73% | 1026.1 hPa | 0.51 mm | - | - | - |
| 1778083205 | 11.11° C | 70% | 1026 hPa | 0.51 mm | - | - | - |
* Rain since midnight (hover to see other rain measurements)
** Current wind speed in m/s (hover to see current wind gust speed)